sensor_id;sensor_type;location;lat;lon;timestamp;pressure;altitude;pressure_sealevel;temperature;humidity
18749;BME280;9503;53.560;10.246;2023-01-25T07:02:24;102897.25;;;-0.16;100.00
18749;BME280;9503;53.560;10.246;2023-01-25T07:04:50;102895.56;;;-0.03;100.00
18749;BME280;9503;53.560;10.246;2023-01-25T07:07:17;102896.19;;;0.09;100.00
18749;BME280;9503;53.560;10.246;2023-01-25T07:09:44;102887.81;;;-0.05;100.00
18749;BME280;9503;53.560;10.246;2023-01-25T07:12:10;102882.06;;;0.23;100.00
18749;BME280;9503;53.560;10.246;2023-01-25T07:14:37;102887.44;;;0.53;100.00
18749;BME280;9503;53.560;10.246;2023-01-25T07:17:03;102882.47;;;0.34;100.00
18749;BME280;9503;53.560;10.246;2023-01-25T07:19:31;102873.44;;;0.02;100.00
18749;BME280;9503;53.560;10.246;2023-01-25T07:21:58;102870.88;;;-0.06;100.00
18749;BME280;9503;53.560;10.246;2023-01-25T07:24:24;102868.19;;;-0.07;100.00
18749;BME280;9503;53.560;10.246;2023-01-25T07:26:53;102869.22;;;0.15;100.00
18749;BME280;9503;53.560;10.246;2023-01-25T07:29:20;102874.34;;;0.02;100.00
18749;BME280;9503;53.560;10.246;2023-01-25T07:31:46;102860.13;;;0.37;100.00
18749;BME280;9503;53.560;10.246;2023-01-25T07:34:15;102857.41;;;0.35;100.00
18749;BME280;9503;53.560;10.246;2023-01-25T07:36:43;102856.97;;;0.18;100.00
18749;BME280;9503;53.560;10.246;2023-01-25T07:39:11;102859.13;;;0.49;100.00
18749;BME280;9503;53.560;10.246;2023-01-25T07:41:38;102857.56;;;-0.05;100.00
18749;BME280;9503;53.560;10.246;2023-01-25T07:44:05;102853.13;;;0.07;100.00
18749;BME280;9503;53.560;10.246;2023-01-25T07:46:32;102856.16;;;0.05;100.00
18749;BME280;9503;53.560;10.246;2023-01-25T07:48:58;102842.53;;;0.10;100.00
18749;BME280;9503;53.560;10.246;2023-01-25T07:51:25;102853.34;;;0.09;100.00
18749;BME280;9503;53.560;10.246;2023-01-25T07:53:57;102857.56;;;0.22;100.00
18749;BME280;9503;53.560;10.246;2023-01-25T07:56:25;102851.28;;;0.33;100.00
18749;BME280;9503;53.560;10.246;2023-01-25T07:58:53;102842.75;;;0.52;100.00
18749;BME280;9503;53.560;10.246;2023-01-25T08:01:21;102842.09;;;0.68;100.00
18749;BME280;9503;53.560;10.246;2023-01-25T08:03:48;102832.78;;;1.02;100.00
18749;BME280;9503;53.560;10.246;2023-01-25T08:06:16;102831.72;;;1.07;100.00
18749;BME280;9503;53.560;10.246;2023-01-25T08:08:44;102827.06;;;0.55;100.00
18749;BME280;9503;53.560;10.246;2023-01-25T08:11:15;102817.97;;;0.36;100.00
18749;BME280;9503;53.560;10.246;2023-01-25T08:13:43;102827.00;;;0.41;100.00
18749;BME280;9503;53.560;10.246;2023-01-25T08:16:10;102824.94;;;0.65;100.00
18749;BME280;9503;53.560;10.246;2023-01-25T08:18:37;102816.16;;;0.35;100.00
18749;BME280;9503;53.560;10.246;2023-01-25T08:21:04;102821.09;;;0.47;100.00
18749;BME280;9503;53.560;10.246;2023-01-25T08:23:31;102811.69;;;0.39;100.00
18749;BME280;9503;53.560;10.246;2023-01-25T08:26:00;102811.25;;;0.70;100.00
18749;BME280;9503;53.560;10.246;2023-01-25T08:28:28;102806.53;;;0.18;100.00
18749;BME280;9503;53.560;10.246;2023-01-25T08:31:03;102802.09;;;0.30;100.00
18749;BME280;9503;53.560;10.246;2023-01-25T08:33:30;102798.56;;;0.49;100.00
18749;BME280;9503;53.560;10.246;2023-01-25T08:35:57;102807.16;;;0.37;100.00
18749;BME280;9503;53.560;10.246;2023-01-25T08:38:24;102800.13;;;0.34;100.00
18749;BME280;9503;53.560;10.246;2023-01-25T08:40:50;102797.31;;;0.11;100.00
18749;BME280;9503;53.560;10.246;2023-01-25T08:43:17;102787.91;;;0.37;100.00
18749;BME280;9503;53.560;10.246;2023-01-25T08:45:45;102789.63;;;0.24;100.00
18749;BME280;9503;53.560;10.246;2023-01-25T08:48:13;102786.03;;;0.29;100.00
18749;BME280;9503;53.560;10.246;2023-01-25T08:50:44;102781.66;;;0.14;100.00
18749;BME280;9503;53.560;10.246;2023-01-25T08:53:12;102780.72;;;-0.28;100.00
18749;BME280;9503;53.560;10.246;2023-01-25T08:55:39;102777.06;;;-0.30;100.00
18749;BME280;9503;53.560;10.246;2023-01-25T08:58:08;102777.09;;;-0.57;100.00
18749;BME280;9503;53.560;10.246;2023-01-25T09:00:35;102773.19;;;0.13;100.00
18749;BME280;9503;53.560;10.246;2023-01-25T09:03:03;102767.97;;;-0.15;100.00
18749;BME280;9503;53.560;10.246;2023-01-25T09:05:32;102759.09;;;0.01;100.00
18749;BME280;9503;53.560;10.246;2023-01-25T09:07:59;102757.81;;;-0.03;100.00
18749;BME280;9503;53.560;10.246;2023-01-25T09:10:26;102745.72;;;-0.05;100.00
18749;BME280;9503;53.560;10.246;2023-01-25T09:12:52;102756.47;;;0.21;100.00
18749;BME280;9503;53.560;10.246;2023-01-25T09:15:19;102747.03;;;0.06;100.00
18749;BME280;9503;53.560;10.246;2023-01-25T09:17:49;102751.69;;;0.44;100.00
18749;BME280;9503;53.560;10.246;2023-01-25T09:20:17;102746.53;;;0.71;100.00
18749;BME280;9503;53.560;10.246;2023-01-25T09:22:43;102748.38;;;0.23;100.00
18749;BME280;9503;53.560;10.246;2023-01-25T09:25:10;102744.09;;;0.30;100.00
18749;BME280;9503;53.560;10.246;2023-01-25T09:27:37;102744.69;;;0.07;100.00
18749;BME280;9503;53.560;10.246;2023-01-25T09:30:05;102746.31;;;0.07;100.00
18749;BME280;9503;53.560;10.246;2023-01-25T09:32:31;102746.09;;;-0.02;100.00
18749;BME280;9503;53.560;10.246;2023-01-25T09:34:58;102743.94;;;-0.06;100.00
18749;BME280;9503;53.560;10.246;2023-01-25T09:37:26;102744.19;;;0.10;100.00
18749;BME280;9503;53.560;10.246;2023-01-25T09:39:53;102742.53;;;0.44;100.00
18749;BME280;9503;53.560;10.246;2023-01-25T09:42:45;102737.22;;;0.28;100.00
18749;BME280;9503;53.560;10.246;2023-01-25T09:45:23;102744.06;;;0.22;100.00
18749;BME280;9503;53.560;10.246;2023-01-25T09:47:57;102743.78;;;0.48;100.00
18749;BME280;9503;53.560;10.246;2023-01-25T09:50:37;102736.03;;;0.46;100.00
18749;BME280;9503;53.560;10.246;2023-01-25T09:53:33;102728.59;;;0.34;100.00
18749;BME280;9503;53.560;10.246;2023-01-25T09:56:03;102721.53;;;0.24;100.00
18749;BME280;9503;53.560;10.246;2023-01-25T09:58:36;102727.66;;;0.26;100.00
18749;BME280;9503;53.560;10.246;2023-01-25T10:01:12;102719.31;;;0.68;100.00
18749;BME280;9503;53.560;10.246;2023-01-25T10:03:46;102707.91;;;0.50;100.00
18749;BME280;9503;53.560;10.246;2023-01-25T10:06:15;102704.34;;;0.77;100.00
18749;BME280;9503;53.560;10.246;2023-01-25T10:08:48;102712.28;;;0.80;100.00
18749;BME280;9503;53.560;10.246;2023-01-25T10:11:21;102711.56;;;0.60;100.00
18749;BME280;9503;53.560;10.246;2023-01-25T10:13:48;102717.84;;;0.56;100.00
18749;BME280;9503;53.560;10.246;2023-01-25T10:16:19;102710.47;;;0.72;100.00
18749;BME280;9503;53.560;10.246;2023-01-25T10:18:55;102711.22;;;0.85;100.00
18749;BME280;9503;53.560;10.246;2023-01-25T10:21:28;102701.09;;;0.85;100.00
18749;BME280;9503;53.560;10.246;2023-01-25T10:27:20;102679.44;;;0.73;100.00
18749;BME280;9503;53.560;10.246;2023-01-25T10:29:51;102676.03;;;0.72;100.00
18749;BME280;9503;53.560;10.246;2023-01-25T10:32:24;102671.16;;;0.52;100.00
18749;BME280;9503;53.560;10.246;2023-01-25T10:34:54;102676.22;;;0.60;100.00
18749;BME280;9503;53.560;10.246;2023-01-25T10:37:24;102664.69;;;0.69;100.00
18749;BME280;9503;53.560;10.246;2023-01-25T10:39:57;102666.13;;;0.88;100.00
18749;BME280;9503;53.560;10.246;2023-01-25T10:42:29;102666.50;;;0.84;100.00
18749;BME280;9503;53.560;10.246;2023-01-25T10:44:58;102661.41;;;1.20;100.00
18749;BME280;9503;53.560;10.246;2023-01-25T10:47:27;102661.38;;;1.48;100.00
18749;BME280;9503;53.560;10.246;2023-01-25T10:49:55;102655.78;;;1.36;100.00
18749;BME280;9503;53.560;10.246;2023-01-25T10:52:23;102654.78;;;0.85;100.00
18749;BME280;9503;53.560;10.246;2023-01-25T10:55:06;102640.34;;;0.83;100.00
18749;BME280;9503;53.560;10.246;2023-01-25T10:57:42;102638.72;;;0.70;100.00
18749;BME280;9503;53.560;10.246;2023-01-25T11:00:23;102635.03;;;1.25;100.00
18749;BME280;9503;53.560;10.246;2023-01-25T11:02:52;102632.94;;;1.06;100.00
18749;BME280;9503;53.560;10.246;2023-01-25T11:05:28;102636.38;;;0.78;100.00
18749;BME280;9503;53.560;10.246;2023-01-25T11:07:55;102632.03;;;1.06;100.00
18749;BME280;9503;53.560;10.246;2023-01-25T11:10:30;102621.22;;;1.00;100.00
18749;BME280;9503;53.560;10.246;2023-01-25T11:13:31;102607.88;;;0.58;100.00
18749;BME280;9503;53.560;10.246;2023-01-25T11:16:15;102607.88;;;0.87;100.00
18749;BME280;9503;53.560;10.246;2023-01-25T11:18:49;102603.72;;;0.73;100.00
18749;BME280;9503;53.560;10.246;2023-01-25T11:21:18;102595.38;;;1.09;100.00
18749;BME280;9503;53.560;10.246;2023-01-25T11:23:57;102597.25;;;0.82;100.00
18749;BME280;9503;53.560;10.246;2023-01-25T11:26:24;102589.28;;;0.93;100.00
18749;BME280;9503;53.560;10.246;2023-01-25T11:29:06;102582.28;;;0.76;100.00
18749;BME280;9503;53.560;10.246;2023-01-25T11:31:33;102572.16;;;0.98;100.00
18749;BME280;9503;53.560;10.246;2023-01-25T11:34:00;102563.00;;;0.63;100.00
18749;BME280;9503;53.560;10.246;2023-01-25T11:36:33;102557.25;;;0.49;100.00
18749;BME280;9503;53.560;10.246;2023-01-25T11:39:16;102561.22;;;0.69;100.00
18749;BME280;9503;53.560;10.246;2023-01-25T11:41:54;102554.38;;;0.61;100.00
18749;BME280;9503;53.560;10.246;2023-01-25T11:44:50;102545.47;;;0.93;100.00
18749;BME280;9503;53.560;10.246;2023-01-25T11:47:35;102542.06;;;0.85;100.00
18749;BME280;9503;53.560;10.246;2023-01-25T11:50:12;102531.84;;;0.48;100.00
18749;BME280;9503;53.560;10.246;2023-01-25T11:52:55;102527.50;;;0.61;100.00
18749;BME280;9503;53.560;10.246;2023-01-25T11:55:27;102513.25;;;0.69;100.00
18749;BME280;9503;53.560;10.246;2023-01-25T11:58:19;102512.81;;;0.94;100.00
18749;BME280;9503;53.560;10.246;2023-01-25T12:00:59;102505.44;;;0.96;100.00
18749;BME280;9503;53.560;10.246;2023-01-25T12:06:43;102489.91;;;1.00;100.00
18749;BME280;9503;53.560;10.246;2023-01-25T12:09:40;102479.91;;;0.64;100.00
18749;BME280;9503;53.560;10.246;2023-01-25T12:12:20;102471.50;;;1.01;100.00
18749;BME280;9503;53.560;10.246;2023-01-25T12:15:07;102464.44;;;1.13;100.00
18749;BME280;9503;53.560;10.246;2023-01-25T12:17:48;102465.47;;;1.52;100.00
18749;BME280;9503;53.560;10.246;2023-01-25T12:20:54;102454.84;;;0.66;100.00
18749;BME280;9503;53.560;10.246;2023-01-25T12:23:35;102453.59;;;0.62;100.00
18749;BME280;9503;53.560;10.246;2023-01-25T12:26:15;102454.28;;;0.75;100.00
18749;BME280;9503;53.560;10.246;2023-01-25T12:28:48;102442.84;;;0.93;100.00
18749;BME280;9503;53.560;10.246;2023-01-25T12:31:21;102439.88;;;0.67;100.00
18749;BME280;9503;53.560;10.246;2023-01-25T12:33:55;102430.38;;;1.02;100.00
18749;BME280;9503;53.560;10.246;2023-01-25T12:36:26;102424.88;;;0.83;100.00
18749;BME280;9503;53.560;10.246;2023-01-25T12:38:56;102412.31;;;0.69;100.00
18749;BME280;9503;53.560;10.246;2023-01-25T12:41:33;102404.91;;;0.70;100.00
18749;BME280;9503;53.560;10.246;2023-01-25T12:44:06;102397.84;;;0.82;100.00
18749;BME280;9503;53.560;10.246;2023-01-25T12:46:40;102405.84;;;1.01;100.00
18749;BME280;9503;53.560;10.246;2023-01-25T12:49:16;102406.50;;;1.14;100.00
18749;BME280;9503;53.560;10.246;2023-01-25T12:51:44;102399.66;;;1.13;100.00
18749;BME280;9503;53.560;10.246;2023-01-25T12:54:17;102393.59;;;1.04;100.00
18749;BME280;9503;53.560;10.246;2023-01-25T12:56:48;102388.25;;;0.79;100.00
18749;BME280;9503;53.560;10.246;2023-01-25T12:59:27;102376.53;;;0.80;100.00
18749;BME280;9503;53.560;10.246;2023-01-25T13:02:01;102375.63;;;0.79;100.00
18749;BME280;9503;53.560;10.246;2023-01-25T13:04:43;102378.22;;;0.65;100.00
18749;BME280;9503;53.560;10.246;2023-01-25T13:07:20;102378.94;;;0.64;100.00
18749;BME280;9503;53.560;10.246;2023-01-25T13:09:55;102382.03;;;1.06;100.00
18749;BME280;9503;53.560;10.246;2023-01-25T13:12:23;102377.56;;;0.96;100.00
18749;BME280;9503;53.560;10.246;2023-01-25T13:14:50;102368.91;;;0.94;100.00
18749;BME280;9503;53.560;10.246;2023-01-25T13:17:23;102365.13;;;0.98;100.00
18749;BME280;9503;53.560;10.246;2023-01-25T13:19:56;102358.22;;;1.34;100.00
18749;BME280;9503;53.560;10.246;2023-01-25T13:22:59;102357.06;;;1.16;100.00
18749;BME280;9503;53.560;10.246;2023-01-25T13:25:26;102351.75;;;0.99;100.00
18749;BME280;9503;53.560;10.246;2023-01-25T13:31:03;102355.22;;;1.22;100.00
18749;BME280;9503;53.560;10.246;2023-01-25T13:33:32;102343.09;;;1.27;100.00
18749;BME280;9503;53.560;10.246;2023-01-25T13:39:41;102331.59;;;1.22;100.00
18749;BME280;9503;53.560;10.246;2023-01-25T13:42:19;102328.97;;;1.06;100.00
18749;BME280;9503;53.560;10.246;2023-01-25T13:44:48;102331.19;;;1.03;100.00
18749;BME280;9503;53.560;10.246;2023-01-25T13:47:18;102333.22;;;1.21;100.00
18749;BME280;9503;53.560;10.246;2023-01-25T13:49:51;102328.44;;;1.31;100.00
18749;BME280;9503;53.560;10.246;2023-01-25T13:52:22;102326.41;;;1.13;100.00
18749;BME280;9503;53.560;10.246;2023-01-25T13:54:54;102321.63;;;1.23;100.00
18749;BME280;9503;53.560;10.246;2023-01-25T13:57:23;102321.53;;;1.60;100.00
18749;BME280;9503;53.560;10.246;2023-01-25T13:59:59;102316.03;;;1.72;100.00
18749;BME280;9503;53.560;10.246;2023-01-25T14:02:26;102317.84;;;1.50;100.00
18749;BME280;9503;53.560;10.246;2023-01-25T14:04:55;102316.59;;;1.69;100.00
18749;BME280;9503;53.560;10.246;2023-01-25T14:07:27;102312.75;;;1.73;100.00
18749;BME280;9503;53.560;10.246;2023-01-25T14:09:57;102306.59;;;1.78;100.00
18749;BME280;9503;53.560;10.246;2023-01-25T14:12:32;102307.94;;;1.67;100.00
18749;BME280;9503;53.560;10.246;2023-01-25T14:15:17;102302.41;;;1.62;100.00
18749;BME280;9503;53.560;10.246;2023-01-25T14:17:44;102299.59;;;1.68;100.00
18749;BME280;9503;53.560;10.246;2023-01-25T14:20:20;102301.09;;;1.66;100.00
18749;BME280;9503;53.560;10.246;2023-01-25T14:22:48;102292.66;;;0.90;100.00
18749;BME280;9503;53.560;10.246;2023-01-25T14:25:18;102310.59;;;1.30;100.00
18749;BME280;9503;53.560;10.246;2023-01-25T14:27:49;102306.38;;;1.60;100.00
18749;BME280;9503;53.560;10.246;2023-01-25T14:30:18;102298.78;;;1.60;100.00
18749;BME280;9503;53.560;10.246;2023-01-25T14:32:46;102281.91;;;1.68;100.00
18749;BME280;9503;53.560;10.246;2023-01-25T14:35:32;102284.06;;;1.88;100.00
18749;BME280;9503;53.560;10.246;2023-01-25T14:37:59;102279.84;;;1.96;100.00
18749;BME280;9503;53.560;10.246;2023-01-25T14:40:28;102284.63;;;1.70;100.00
18749;BME280;9503;53.560;10.246;2023-01-25T14:42:56;102278.31;;;1.50;100.00
18749;BME280;9503;53.560;10.246;2023-01-25T14:45:23;102279.66;;;1.17;100.00
18749;BME280;9503;53.560;10.246;2023-01-25T14:47:51;102271.38;;;1.18;100.00
18749;BME280;9503;53.560;10.246;2023-01-25T14:50:32;102267.31;;;0.81;100.00
18749;BME280;9503;53.560;10.246;2023-01-25T14:53:06;102262.53;;;0.91;100.00
18749;BME280;9503;53.560;10.246;2023-01-25T14:55:35;102265.81;;;1.13;100.00
18749;BME280;9503;53.560;10.246;2023-01-25T14:58:02;102262.75;;;1.08;100.00
18749;BME280;9503;53.560;10.246;2023-01-25T15:00:29;102259.31;;;0.85;100.00
18749;BME280;9503;53.560;10.246;2023-01-25T15:02:59;102259.38;;;1.24;100.00
18749;BME280;9503;53.560;10.246;2023-01-25T15:05:28;102257.38;;;1.05;100.00
18749;BME280;9503;53.560;10.246;2023-01-25T15:07:56;102256.69;;;0.76;100.00
18749;BME280;9503;53.560;10.246;2023-01-25T15:10:25;102262.13;;;0.95;100.00
18749;BME280;9503;53.560;10.246;2023-01-25T15:12:59;102262.28;;;1.27;100.00
18749;BME280;9503;53.560;10.246;2023-01-25T15:15:28;102269.91;;;0.97;100.00
18749;BME280;9503;53.560;10.246;2023-01-25T15:17:56;102264.16;;;0.91;100.00
18749;BME280;9503;53.560;10.246;2023-01-25T15:23:15;102256.97;;;0.57;100.00
18749;BME280;9503;53.560;10.246;2023-01-25T15:25:50;102249.56;;;0.58;100.00
18749;BME280;9503;53.560;10.246;2023-01-25T15:28:19;102246.50;;;0.61;100.00
18749;BME280;9503;53.560;10.246;2023-01-25T15:30:45;102251.00;;;0.26;100.00
18749;BME280;9503;53.560;10.246;2023-01-25T15:33:17;102241.22;;;0.36;100.00
18749;BME280;9503;53.560;10.246;2023-01-25T15:35:44;102240.50;;;0.37;100.00
18749;BME280;9503;53.560;10.246;2023-01-25T15:38:12;102228.06;;;0.39;100.00
18749;BME280;9503;53.560;10.246;2023-01-25T15:40:38;102224.03;;;0.11;100.00
18749;BME280;9503;53.560;10.246;2023-01-25T15:43:07;102216.50;;;0.04;100.00
18749;BME280;9503;53.560;10.246;2023-01-25T15:45:36;102228.00;;;0.16;100.00
18749;BME280;9503;53.560;10.246;2023-01-25T15:48:03;102226.09;;;0.29;100.00
18749;BME280;9503;53.560;10.246;2023-01-25T15:50:29;102215.97;;;0.36;100.00
18749;BME280;9503;53.560;10.246;2023-01-25T15:52:56;102206.72;;;0.51;100.00
18749;BME280;9503;53.560;10.246;2023-01-25T15:55:23;102195.59;;;0.42;100.00
18749;BME280;9503;53.560;10.246;2023-01-25T15:57:50;102191.84;;;0.38;100.00
18749;BME280;9503;53.560;10.246;2023-01-25T16:00:18;102195.28;;;0.39;100.00
18749;BME280;9503;53.560;10.246;2023-01-25T16:02:49;102192.13;;;0.48;100.00
18749;BME280;9503;53.560;10.246;2023-01-25T16:05:15;102198.53;;;0.38;100.00
18749;BME280;9503;53.560;10.246;2023-01-25T16:07:43;102198.03;;;0.26;100.00
18749;BME280;9503;53.560;10.246;2023-01-25T16:10:19;102190.91;;;0.15;100.00
18749;BME280;9503;53.560;10.246;2023-01-25T16:12:47;102185.16;;;0.09;100.00
18749;BME280;9503;53.560;10.246;2023-01-25T16:15:14;102185.53;;;0.05;100.00
18749;BME280;9503;53.560;10.246;2023-01-25T16:17:40;102180.66;;;0.06;100.00
18749;BME280;9503;53.560;10.246;2023-01-25T16:20:15;102183.88;;;0.12;100.00
18749;BME280;9503;53.560;10.246;2023-01-25T16:22:43;102186.47;;;0.28;100.00
18749;BME280;9503;53.560;10.246;2023-01-25T16:25:10;102188.09;;;-0.03;100.00
18749;BME280;9503;53.560;10.246;2023-01-25T16:27:36;102181.22;;;0.04;100.00
18749;BME280;9503;53.560;10.246;2023-01-25T16:30:04;102180.81;;;0.15;100.00
18749;BME280;9503;53.560;10.246;2023-01-25T16:32:31;102179.28;;;0.31;100.00
18749;BME280;9503;53.560;10.246;2023-01-25T16:34:58;102185.91;;;0.08;100.00
18749;BME280;9503;53.560;10.246;2023-01-25T16:37:26;102180.66;;;0.06;100.00
18749;BME280;9503;53.560;10.246;2023-01-25T16:39:52;102179.69;;;0.20;100.00
18749;BME280;9503;53.560;10.246;2023-01-25T16:42:19;102181.81;;;0.31;100.00
18749;BME280;9503;53.560;10.246;2023-01-25T16:44:46;102166.97;;;0.41;100.00
18749;BME280;9503;53.560;10.246;2023-01-25T16:47:13;102162.16;;;0.28;100.00
18749;BME280;9503;53.560;10.246;2023-01-25T16:49:40;102164.75;;;0.51;100.00
18749;BME280;9503;53.560;10.246;2023-01-25T16:52:09;102162.72;;;0.56;100.00
18749;BME280;9503;53.560;10.246;2023-01-25T16:54:37;102156.84;;;0.71;100.00
18749;BME280;9503;53.560;10.246;2023-01-25T16:57:05;102172.16;;;0.43;100.00
18749;BME280;9503;53.560;10.246;2023-01-25T16:59:32;102172.13;;;0.73;100.00
18749;BME280;9503;53.560;10.246;2023-01-25T17:01:58;102171.06;;;0.48;100.00
18749;BME280;9503;53.560;10.246;2023-01-25T17:04:25;102170.59;;;0.36;100.00
18749;BME280;9503;53.560;10.246;2023-01-25T17:06:52;102157.47;;;0.62;100.00
18749;BME280;9503;53.560;10.246;2023-01-25T17:09:19;102153.94;;;0.52;100.00
18749;BME280;9503;53.560;10.246;2023-01-25T17:11:47;102158.44;;;0.48;100.00
18749;BME280;9503;53.560;10.246;2023-01-25T17:14:15;102170.00;;;0.46;100.00
18749;BME280;9503;53.560;10.246;2023-01-25T17:16:43;102174.44;;;0.25;100.00
18749;BME280;9503;53.560;10.246;2023-01-25T17:19:13;102167.44;;;0.76;100.00
18749;BME280;9503;53.560;10.246;2023-01-25T17:21:40;102164.63;;;0.66;100.00
18749;BME280;9503;53.560;10.246;2023-01-25T17:24:07;102155.31;;;0.58;100.00
18749;BME280;9503;53.560;10.246;2023-01-25T17:26:34;102148.03;;;0.45;100.00
18749;BME280;9503;53.560;10.246;2023-01-25T17:29:02;102153.94;;;0.22;100.00
18749;BME280;9503;53.560;10.246;2023-01-25T17:31:32;102155.63;;;0.08;100.00
18749;BME280;9503;53.560;10.246;2023-01-25T17:34:00;102155.16;;;-0.04;100.00
18749;BME280;9503;53.560;10.246;2023-01-25T17:36:27;102154.59;;;-0.02;100.00
18749;BME280;9503;53.560;10.246;2023-01-25T17:38:54;102150.88;;;0.18;100.00
18749;BME280;9503;53.560;10.246;2023-01-25T17:41:21;102133.94;;;-0.13;100.00
18749;BME280;9503;53.560;10.246;2023-01-25T17:43:49;102130.53;;;-0.14;100.00
18749;BME280;9503;53.560;10.246;2023-01-25T17:46:21;102123.19;;;0.11;100.00
18749;BME280;9503;53.560;10.246;2023-01-25T17:48:49;102126.41;;;0.17;100.00
18749;BME280;9503;53.560;10.246;2023-01-25T17:51:16;102126.16;;;0.30;100.00
18749;BME280;9503;53.560;10.246;2023-01-25T17:53:43;102129.66;;;0.16;100.00
18749;BME280;9503;53.560;10.246;2023-01-25T17:56:10;102118.72;;;0.08;100.00
18749;BME280;9503;53.560;10.246;2023-01-25T17:58:38;102110.84;;;-0.02;100.00
